sensor_id;sensor_type;location;lat;lon;timestamp;temperature;humidity
65687;HTU21D;52406;45.078;38.986;2022-10-18T00:01:38;10.03;68.07
65687;HTU21D;52406;45.078;38.986;2022-10-18T00:04:04;10.04;68.08
65687;HTU21D;52406;45.078;38.986;2022-10-18T00:06:30;10.03;68.13
65687;HTU21D;52406;45.078;38.986;2022-10-18T00:08:56;10.00;68.21
65687;HTU21D;52406;45.078;38.986;2022-10-18T00:11:22;9.97;68.22
65687;HTU21D;52406;45.078;38.986;2022-10-18T00:13:48;9.91;68.26
65687;HTU21D;52406;45.078;38.986;2022-10-18T00:16:16;9.88;68.31
65687;HTU21D;52406;45.078;38.986;2022-10-18T00:18:42;9.83;68.41
65687;HTU21D;52406;45.078;38.986;2022-10-18T00:21:15;9.84;68.41
65687;HTU21D;52406;45.078;38.986;2022-10-18T00:23:42;9.84;68.45
65687;HTU21D;52406;45.078;38.986;2022-10-18T00:26:14;9.83;68.48
65687;HTU21D;52406;45.078;38.986;2022-10-18T00:28:41;9.85;68.44
65687;HTU21D;52406;45.078;38.986;2022-10-18T00:31:19;9.86;68.42
65687;HTU21D;52406;45.078;38.986;2022-10-18T00:33:48;9.83;68.40
65687;HTU21D;52406;45.078;38.986;2022-10-18T00:36:15;9.79;68.42
65687;HTU21D;52406;45.078;38.986;2022-10-18T00:38:41;9.76;68.49
65687;HTU21D;52406;45.078;38.986;2022-10-18T00:41:09;9.71;68.47
65687;HTU21D;52406;45.078;38.986;2022-10-18T00:44:04;9.67;68.53
65687;HTU21D;52406;45.078;38.986;2022-10-18T00:46:33;9.65;68.60
65687;HTU21D;52406;45.078;38.986;2022-10-18T00:49:04;9.61;68.62
65687;HTU21D;52406;45.078;38.986;2022-10-18T00:51:39;9.55;68.59
65687;HTU21D;52406;45.078;38.986;2022-10-18T00:54:06;9.53;68.65
65687;HTU21D;52406;45.078;38.986;2022-10-18T00:56:33;9.51;68.62
65687;HTU21D;52406;45.078;38.986;2022-10-18T00:58:59;9.47;68.65
65687;HTU21D;52406;45.078;38.986;2022-10-18T01:01:25;9.45;68.70
65687;HTU21D;52406;45.078;38.986;2022-10-18T01:03:52;9.41;68.68
65687;HTU21D;52406;45.078;38.986;2022-10-18T01:06:19;9.39;68.70
65687;HTU21D;52406;45.078;38.986;2022-10-18T01:12:03;9.37;68.75
65687;HTU21D;52406;45.078;38.986;2022-10-18T01:22:49;9.35;68.69
65687;HTU21D;52406;45.078;38.986;2022-10-18T01:31:02;9.29;68.82
65687;HTU21D;52406;45.078;38.986;2022-10-18T01:33:43;9.26;68.81
65687;HTU21D;52406;45.078;38.986;2022-10-18T01:36:36;9.25;68.84
65687;HTU21D;52406;45.078;38.986;2022-10-18T01:39:04;9.23;68.91
65687;HTU21D;52406;45.078;38.986;2022-10-18T01:41:34;9.22;68.92
65687;HTU21D;52406;45.078;38.986;2022-10-18T01:44:04;9.18;68.91
65687;HTU21D;52406;45.078;38.986;2022-10-18T01:46:32;9.15;68.92
65687;HTU21D;52406;45.078;38.986;2022-10-18T01:48:58;9.11;68.97
65687;HTU21D;52406;45.078;38.986;2022-10-18T01:51:25;9.10;69.06
65687;HTU21D;52406;45.078;38.986;2022-10-18T01:53:53;9.10;69.04
65687;HTU21D;52406;45.078;38.986;2022-10-18T01:56:23;9.11;69.04
65687;HTU21D;52406;45.078;38.986;2022-10-18T02:08:10;9.17;68.80
65687;HTU21D;52406;45.078;38.986;2022-10-18T02:11:05;9.18;68.80
65687;HTU21D;52406;45.078;38.986;2022-10-18T02:13:35;9.18;68.80
65687;HTU21D;52406;45.078;38.986;2022-10-18T02:16:06;9.22;68.77
65687;HTU21D;52406;45.078;38.986;2022-10-18T02:18:45;9.24;68.76
65687;HTU21D;52406;45.078;38.986;2022-10-18T02:21:17;9.27;68.76
65687;HTU21D;52406;45.078;38.986;2022-10-18T02:23:45;9.35;68.70
65687;HTU21D;52406;45.078;38.986;2022-10-18T02:26:12;9.41;68.59
65687;HTU21D;52406;45.078;38.986;2022-10-18T02:28:39;9.46;68.49
65687;HTU21D;52406;45.078;38.986;2022-10-18T02:33:54;9.55;68.40
65687;HTU21D;52406;45.078;38.986;2022-10-18T02:36:27;9.63;68.33
65687;HTU21D;52406;45.078;38.986;2022-10-18T02:39:02;9.69;68.20
65687;HTU21D;52406;45.078;38.986;2022-10-18T02:41:29;9.77;68.16
65687;HTU21D;52406;45.078;38.986;2022-10-18T02:43:56;9.81;68.13
65687;HTU21D;52406;45.078;38.986;2022-10-18T02:46:22;9.85;68.10
65687;HTU21D;52406;45.078;38.986;2022-10-18T02:48:48;9.90;68.07
65687;HTU21D;52406;45.078;38.986;2022-10-18T02:51:15;9.94;67.96
65687;HTU21D;52406;45.078;38.986;2022-10-18T02:53:41;9.95;67.92
65687;HTU21D;52406;45.078;38.986;2022-10-18T02:56:07;9.97;67.86
65687;HTU21D;52406;45.078;38.986;2022-10-18T02:58:34;9.98;67.84
65687;HTU21D;52406;45.078;38.986;2022-10-18T03:01:00;9.99;67.82
65687;HTU21D;52406;45.078;38.986;2022-10-18T03:03:26;10.05;67.83
65687;HTU21D;52406;45.078;38.986;2022-10-18T03:05:52;10.05;67.80
65687;HTU21D;52406;45.078;38.986;2022-10-18T03:08:18;10.06;67.79
65687;HTU21D;52406;45.078;38.986;2022-10-18T03:10:45;10.07;67.79
65687;HTU21D;52406;45.078;38.986;2022-10-18T03:13:11;10.09;67.75
65687;HTU21D;52406;45.078;38.986;2022-10-18T03:15:38;10.09;67.72
65687;HTU21D;52406;45.078;38.986;2022-10-18T03:18:04;10.08;67.69
65687;HTU21D;52406;45.078;38.986;2022-10-18T03:20:30;10.09;67.71
65687;HTU21D;52406;45.078;38.986;2022-10-18T03:22:56;10.12;67.69
65687;HTU21D;52406;45.078;38.986;2022-10-18T03:25:22;10.16;67.67
65687;HTU21D;52406;45.078;38.986;2022-10-18T03:27:48;10.21;67.64
65687;HTU21D;52406;45.078;38.986;2022-10-18T03:30:14;10.25;67.61
65687;HTU21D;52406;45.078;38.986;2022-10-18T03:32:40;10.25;67.57
65687;HTU21D;52406;45.078;38.986;2022-10-18T03:35:07;10.25;67.60
65687;HTU21D;52406;45.078;38.986;2022-10-18T03:37:36;10.26;67.64
65687;HTU21D;52406;45.078;38.986;2022-10-18T03:40:03;10.27;67.61
65687;HTU21D;52406;45.078;38.986;2022-10-18T03:42:29;10.29;67.62
65687;HTU21D;52406;45.078;38.986;2022-10-18T03:44:55;10.29;67.55
65687;HTU21D;52406;45.078;38.986;2022-10-18T03:47:21;10.28;67.56
65687;HTU21D;52406;45.078;38.986;2022-10-18T03:49:47;10.28;67.56
65687;HTU21D;52406;45.078;38.986;2022-10-18T03:52:13;10.29;67.58
65687;HTU21D;52406;45.078;38.986;2022-10-18T03:54:39;10.30;67.59
65687;HTU21D;52406;45.078;38.986;2022-10-18T03:57:05;10.37;67.60
65687;HTU21D;52406;45.078;38.986;2022-10-18T03:59:31;10.40;67.61
65687;HTU21D;52406;45.078;38.986;2022-10-18T04:01:57;10.66;67.19
65687;HTU21D;52406;45.078;38.986;2022-10-18T04:04:23;10.70;67.02
65687;HTU21D;52406;45.078;38.986;2022-10-18T04:06:49;10.66;67.12
65687;HTU21D;52406;45.078;38.986;2022-10-18T04:09:15;10.63;67.23
65687;HTU21D;52406;45.078;38.986;2022-10-18T04:11:41;10.73;67.17
65687;HTU21D;52406;45.078;38.986;2022-10-18T04:14:07;10.88;66.99
65687;HTU21D;52406;45.078;38.986;2022-10-18T04:16:33;10.92;66.96
65687;HTU21D;52406;45.078;38.986;2022-10-18T04:18:59;10.92;66.98
65687;HTU21D;52406;45.078;38.986;2022-10-18T04:21:25;10.86;67.09
65687;HTU21D;52406;45.078;38.986;2022-10-18T04:23:51;10.79;67.17
65687;HTU21D;52406;45.078;38.986;2022-10-18T04:26:17;10.75;67.26
65687;HTU21D;52406;45.078;38.986;2022-10-18T04:28:44;10.74;67.28
65687;HTU21D;52406;45.078;38.986;2022-10-18T04:31:10;10.75;67.30
65687;HTU21D;52406;45.078;38.986;2022-10-18T04:33:37;10.74;67.31
65687;HTU21D;52406;45.078;38.986;2022-10-18T04:36:03;10.81;67.38
65687;HTU21D;52406;45.078;38.986;2022-10-18T04:38:29;10.96;67.08
65687;HTU21D;52406;45.078;38.986;2022-10-18T04:40:55;11.09;66.98
65687;HTU21D;52406;45.078;38.986;2022-10-18T04:43:21;11.18;66.76
65687;HTU21D;52406;45.078;38.986;2022-10-18T04:45:47;11.17;66.88
65687;HTU21D;52406;45.078;38.986;2022-10-18T04:48:16;11.18;66.93
65687;HTU21D;52406;45.078;38.986;2022-10-18T04:50:43;11.20;67.07
65687;HTU21D;52406;45.078;38.986;2022-10-18T04:53:14;11.28;66.85
65687;HTU21D;52406;45.078;38.986;2022-10-18T04:55:43;11.25;66.88
65687;HTU21D;52406;45.078;38.986;2022-10-18T04:58:10;11.25;67.01
65687;HTU21D;52406;45.078;38.986;2022-10-18T05:00:38;11.29;67.01
65687;HTU21D;52406;45.078;38.986;2022-10-18T05:03:04;11.34;66.98
65687;HTU21D;52406;45.078;38.986;2022-10-18T05:05:30;11.31;66.99
65687;HTU21D;52406;45.078;38.986;2022-10-18T05:07:56;11.32;66.99
65687;HTU21D;52406;45.078;38.986;2022-10-18T05:10:22;11.32;67.00
65687;HTU21D;52406;45.078;38.986;2022-10-18T05:12:48;11.39;66.93
65687;HTU21D;52406;45.078;38.986;2022-10-18T05:15:14;11.40;66.84
65687;HTU21D;52406;45.078;38.986;2022-10-18T05:17:40;11.43;66.81
65687;HTU21D;52406;45.078;38.986;2022-10-18T05:20:07;11.49;66.77
65687;HTU21D;52406;45.078;38.986;2022-10-18T05:22:33;11.58;66.73
65687;HTU21D;52406;45.078;38.986;2022-10-18T05:24:59;11.70;66.62
65687;HTU21D;52406;45.078;38.986;2022-10-18T05:27:25;11.79;66.53
65687;HTU21D;52406;45.078;38.986;2022-10-18T05:29:51;11.88;66.43
65687;HTU21D;52406;45.078;38.986;2022-10-18T05:32:17;11.94;66.32
65687;HTU21D;52406;45.078;38.986;2022-10-18T05:34:43;12.01;66.27
65687;HTU21D;52406;45.078;38.986;2022-10-18T05:37:09;12.10;66.19
65687;HTU21D;52406;45.078;38.986;2022-10-18T05:39:36;12.16;66.18
65687;HTU21D;52406;45.078;38.986;2022-10-18T05:42:03;12.25;66.10
65687;HTU21D;52406;45.078;38.986;2022-10-18T05:44:30;12.31;66.06
65687;HTU21D;52406;45.078;38.986;2022-10-18T05:46:56;12.36;66.02
65687;HTU21D;52406;45.078;38.986;2022-10-18T05:49:22;12.44;65.93
65687;HTU21D;52406;45.078;38.986;2022-10-18T05:51:48;12.51;65.88
65687;HTU21D;52406;45.078;38.986;2022-10-18T05:54:14;12.63;65.69
65687;HTU21D;52406;45.078;38.986;2022-10-18T05:56:41;12.80;65.42
65687;HTU21D;52406;45.078;38.986;2022-10-18T05:59:07;12.90;65.22
65687;HTU21D;52406;45.078;38.986;2022-10-18T06:01:37;13.01;65.14
65687;HTU21D;52406;45.078;38.986;2022-10-18T06:04:04;13.08;65.07
65687;HTU21D;52406;45.078;38.986;2022-10-18T15:57:49;15.22;63.73
65687;HTU21D;52406;45.078;38.986;2022-10-18T16:03:58;14.54;65.04
65687;HTU21D;52406;45.078;38.986;2022-10-18T16:06:43;14.25;65.53
65687;HTU21D;52406;45.078;38.986;2022-10-18T16:24:39;13.47;66.71
65687;HTU21D;52406;45.078;38.986;2022-10-18T16:31:48;13.38;66.79
65687;HTU21D;52406;45.078;38.986;2022-10-18T16:35:05;13.30;66.91
65687;HTU21D;52406;45.078;38.986;2022-10-18T16:42:06;13.23;67.07
65687;HTU21D;52406;45.078;38.986;2022-10-18T16:45:22;13.32;67.07
65687;HTU21D;52406;45.078;38.986;2022-10-18T16:57:15;13.44;66.89
65687;HTU21D;52406;45.078;38.986;2022-10-18T19:51:26;12.35;68.53
65687;HTU21D;52406;45.078;38.986;2022-10-18T19:53:53;12.28;68.55
65687;HTU21D;52406;45.078;38.986;2022-10-18T19:56:20;12.17;68.57
65687;HTU21D;52406;45.078;38.986;2022-10-18T19:58:48;12.06;68.70
65687;HTU21D;52406;45.078;38.986;2022-10-18T20:01:15;12.01;68.73
65687;HTU21D;52406;45.078;38.986;2022-10-18T20:03:42;12.02;68.78
65687;HTU21D;52406;45.078;38.986;2022-10-18T20:06:09;12.07;68.76
65687;HTU21D;52406;45.078;38.986;2022-10-18T20:08:36;12.17;68.73
65687;HTU21D;52406;45.078;38.986;2022-10-18T20:11:08;12.22;68.68
65687;HTU21D;52406;45.078;38.986;2022-10-18T20:13:35;12.25;68.73
65687;HTU21D;52406;45.078;38.986;2022-10-18T20:16:01;12.23;68.66
65687;HTU21D;52406;45.078;38.986;2022-10-18T20:18:28;12.15;68.68
65687;HTU21D;52406;45.078;38.986;2022-10-18T20:20:54;12.06;68.71
65687;HTU21D;52406;45.078;38.986;2022-10-18T20:23:20;11.94;68.82
65687;HTU21D;52406;45.078;38.986;2022-10-18T20:25:58;11.85;68.84
65687;HTU21D;52406;45.078;38.986;2022-10-18T20:28:25;11.76;68.94
65687;HTU21D;52406;45.078;38.986;2022-10-18T20:31:10;11.91;68.80
65687;HTU21D;52406;45.078;38.986;2022-10-18T20:33:36;0.00;68.39
65687;HTU21D;52406;45.078;38.986;2022-10-18T20:36:04;0.00;67.90
65687;HTU21D;52406;45.078;38.986;2022-10-18T20:38:37;12.56;67.57
65687;HTU21D;52406;45.078;38.986;2022-10-18T20:41:09;12.42;67.64
65687;HTU21D;52406;45.078;38.986;2022-10-18T20:43:36;12.16;68.05
65687;HTU21D;52406;45.078;38.986;2022-10-18T20:46:03;11.94;68.47
65687;HTU21D;52406;45.078;38.986;2022-10-18T20:48:31;11.79;68.71
65687;HTU21D;52406;45.078;38.986;2022-10-18T20:51:02;11.67;68.91
65687;HTU21D;52406;45.078;38.986;2022-10-18T20:53:28;11.58;69.07
65687;HTU21D;52406;45.078;38.986;2022-10-18T20:56:10;11.49;69.08
65687;HTU21D;52406;45.078;38.986;2022-10-18T20:58:38;11.39;69.17
65687;HTU21D;52406;45.078;38.986;2022-10-18T21:01:18;11.22;69.29
65687;HTU21D;52406;45.078;38.986;2022-10-18T21:03:46;11.04;69.44
65687;HTU21D;52406;45.078;38.986;2022-10-18T21:06:23;10.98;69.54
65687;HTU21D;52406;45.078;38.986;2022-10-18T21:08:57;10.96;69.52
65687;HTU21D;52406;45.078;38.986;2022-10-18T21:11:24;10.92;69.60
65687;HTU21D;52406;45.078;38.986;2022-10-18T21:14:00;10.93;69.49
65687;HTU21D;52406;45.078;38.986;2022-10-18T21:16:31;10.94;69.53
65687;HTU21D;52406;45.078;38.986;2022-10-18T21:19:04;10.89;69.28
65687;HTU21D;52406;45.078;38.986;2022-10-18T21:21:30;10.77;69.42
65687;HTU21D;52406;45.078;38.986;2022-10-18T21:23:57;10.64;69.54
65687;HTU21D;52406;45.078;38.986;2022-10-18T21:26:25;10.53;69.65
65687;HTU21D;52406;45.078;38.986;2022-10-18T21:28:53;10.46;69.73
65687;HTU21D;52406;45.078;38.986;2022-10-18T21:31:21;10.43;69.71
65687;HTU21D;52406;45.078;38.986;2022-10-18T21:33:55;10.34;69.71
65687;HTU21D;52406;45.078;38.986;2022-10-18T21:36:22;10.28;69.81
65687;HTU21D;52406;45.078;38.986;2022-10-18T21:38:48;10.25;69.78
65687;HTU21D;52406;45.078;38.986;2022-10-18T21:41:16;10.18;69.80
65687;HTU21D;52406;45.078;38.986;2022-10-18T21:43:45;10.07;69.85
65687;HTU21D;52406;45.078;38.986;2022-10-18T21:46:12;9.97;69.90
65687;HTU21D;52406;45.078;38.986;2022-10-18T21:48:42;9.92;69.97
65687;HTU21D;52406;45.078;38.986;2022-10-18T21:51:09;9.92;69.96
65687;HTU21D;52406;45.078;38.986;2022-10-18T21:53:35;9.92;69.97
65687;HTU21D;52406;45.078;38.986;2022-10-18T21:56:12;9.95;69.95
65687;HTU21D;52406;45.078;38.986;2022-10-18T21:58:38;9.96;69.91
65687;HTU21D;52406;45.078;38.986;2022-10-18T22:01:09;9.90;69.87
65687;HTU21D;52406;45.078;38.986;2022-10-18T22:03:36;9.80;69.90
65687;HTU21D;52406;45.078;38.986;2022-10-18T22:06:05;9.72;70.00
65687;HTU21D;52406;45.078;38.986;2022-10-18T22:08:47;9.67;70.10
65687;HTU21D;52406;45.078;38.986;2022-10-18T22:11:14;9.67;70.12
65687;HTU21D;52406;45.078;38.986;2022-10-18T22:13:41;9.67;70.10
65687;HTU21D;52406;45.078;38.986;2022-10-18T22:16:08;9.67;70.11
65687;HTU21D;52406;45.078;38.986;2022-10-18T22:18:35;9.71;70.11
65687;HTU21D;52406;45.078;38.986;2022-10-18T22:21:05;9.75;69.96
65687;HTU21D;52406;45.078;38.986;2022-10-18T22:23:32;9.75;69.96
65687;HTU21D;52406;45.078;38.986;2022-10-18T22:26:08;9.70;70.02
65687;HTU21D;52406;45.078;38.986;2022-10-18T22:28:37;9.72;70.08
65687;HTU21D;52406;45.078;38.986;2022-10-18T22:31:03;9.74;70.03
65687;HTU21D;52406;45.078;38.986;2022-10-18T22:33:30;9.76;70.01
65687;HTU21D;52406;45.078;38.986;2022-10-18T22:35:56;9.78;70.00
65687;HTU21D;52406;45.078;38.986;2022-10-18T22:38:22;9.81;70.00
65687;HTU21D;52406;45.078;38.986;2022-10-18T22:40:48;9.85;69.98
65687;HTU21D;52406;45.078;38.986;2022-10-18T22:43:15;9.83;69.93
65687;HTU21D;52406;45.078;38.986;2022-10-18T22:45:41;9.76;70.03
65687;HTU21D;52406;45.078;38.986;2022-10-18T22:48:07;9.69;70.11
65687;HTU21D;52406;45.078;38.986;2022-10-18T22:50:33;9.69;70.19
65687;HTU21D;52406;45.078;38.986;2022-10-18T22:52:59;9.77;70.08
65687;HTU21D;52406;45.078;38.986;2022-10-18T22:55:25;9.82;69.98
65687;HTU21D;52406;45.078;38.986;2022-10-18T22:57:51;9.85;69.89
65687;HTU21D;52406;45.078;38.986;2022-10-18T23:00:19;9.93;69.90
65687;HTU21D;52406;45.078;38.986;2022-10-18T23:02:48;9.98;69.69
65687;HTU21D;52406;45.078;38.986;2022-10-18T23:05:14;10.04;69.64
65687;HTU21D;52406;45.078;38.986;2022-10-18T23:07:40;10.06;69.60
65687;HTU21D;52406;45.078;38.986;2022-10-18T23:10:07;10.10;69.59
65687;HTU21D;52406;45.078;38.986;2022-10-18T23:12:33;10.15;69.50
65687;HTU21D;52406;45.078;38.986;2022-10-18T23:14:59;10.22;69.49
65687;HTU21D;52406;45.078;38.986;2022-10-18T23:17:25;10.29;69.38
65687;HTU21D;52406;45.078;38.986;2022-10-18T23:19:51;10.37;69.33
65687;HTU21D;52406;45.078;38.986;2022-10-18T23:22:17;10.43;69.28
65687;HTU21D;52406;45.078;38.986;2022-10-18T23:24:45;10.45;69.28
65687;HTU21D;52406;45.078;38.986;2022-10-18T23:27:12;10.42;69.30
65687;HTU21D;52406;45.078;38.986;2022-10-18T23:29:38;10.39;69.35
65687;HTU21D;52406;45.078;38.986;2022-10-18T23:32:04;10.39;69.41
65687;HTU21D;52406;45.078;38.986;2022-10-18T23:34:30;10.42;69.42
65687;HTU21D;52406;45.078;38.986;2022-10-18T23:36:56;10.44;69.41
65687;HTU21D;52406;45.078;38.986;2022-10-18T23:39:22;10.49;69.46
65687;HTU21D;52406;45.078;38.986;2022-10-18T23:41:49;10.57;69.40
65687;HTU21D;52406;45.078;38.986;2022-10-18T23:44:15;10.62;69.33
65687;HTU21D;52406;45.078;38.986;2022-10-18T23:46:41;10.62;69.33
65687;HTU21D;52406;45.078;38.986;2022-10-18T23:49:07;10.62;69.34
65687;HTU21D;52406;45.078;38.986;2022-10-18T23:51:33;10.59;69.36
65687;HTU21D;52406;45.078;38.986;2022-10-18T23:53:59;10.62;69.37
65687;HTU21D;52406;45.078;38.986;2022-10-18T23:56:25;10.69;69.39
65687;HTU21D;52406;45.078;38.986;2022-10-18T23:58:51;10.74;69.33
